sensor_id;sensor_type;location;lat;lon;timestamp;temperature;humidity
23475;DHT22;11910;52.086;21.066;2022-07-18T00:02:16;14.10;99.90
23475;DHT22;11910;52.086;21.066;2022-07-18T00:04:43;14.10;99.90
23475;DHT22;11910;52.086;21.066;2022-07-18T00:07:09;14.10;99.40
23475;DHT22;11910;52.086;21.066;2022-07-18T00:09:39;14.00;99.80
23475;DHT22;11910;52.086;21.066;2022-07-18T00:12:06;13.90;99.70
23475;DHT22;11910;52.086;21.066;2022-07-18T00:14:32;13.90;98.80
23475;DHT22;11910;52.086;21.066;2022-07-18T00:16:58;13.80;99.80
23475;DHT22;11910;52.086;21.066;2022-07-18T00:19:25;13.90;99.90
23475;DHT22;11910;52.086;21.066;2022-07-18T00:21:51;14.00;99.90
23475;DHT22;11910;52.086;21.066;2022-07-18T00:24:17;14.00;99.90
23475;DHT22;11910;52.086;21.066;2022-07-18T00:26:42;14.10;99.90
23475;DHT22;11910;52.086;21.066;2022-07-18T00:29:08;14.10;99.70
23475;DHT22;11910;52.086;21.066;2022-07-18T00:31:34;14.00;99.50
23475;DHT22;11910;52.086;21.066;2022-07-18T00:34:01;13.80;98.60
23475;DHT22;11910;52.086;21.066;2022-07-18T00:36:27;13.80;99.90
23475;DHT22;11910;52.086;21.066;2022-07-18T00:38:53;13.90;99.50
23475;DHT22;11910;52.086;21.066;2022-07-18T00:41:19;13.80;98.00
23475;DHT22;11910;52.086;21.066;2022-07-18T00:43:44;13.70;99.40
23475;DHT22;11910;52.086;21.066;2022-07-18T00:46:10;13.70;99.10
23475;DHT22;11910;52.086;21.066;2022-07-18T00:48:41;13.60;98.70
23475;DHT22;11910;52.086;21.066;2022-07-18T00:51:08;13.50;99.90
23475;DHT22;11910;52.086;21.066;2022-07-18T00:53:34;13.50;98.80
23475;DHT22;11910;52.086;21.066;2022-07-18T00:55:59;13.30;99.30
23475;DHT22;11910;52.086;21.066;2022-07-18T00:58:27;13.30;99.90
23475;DHT22;11910;52.086;21.066;2022-07-18T01:00:52;13.30;99.90
23475;DHT22;11910;52.086;21.066;2022-07-18T01:03:36;13.30;99.90
23475;DHT22;11910;52.086;21.066;2022-07-18T01:06:02;13.30;99.90
23475;DHT22;11910;52.086;21.066;2022-07-18T01:08:28;13.30;99.20
23475;DHT22;11910;52.086;21.066;2022-07-18T01:10:54;13.20;98.90
23475;DHT22;11910;52.086;21.066;2022-07-18T01:13:20;13.30;99.90
23475;DHT22;11910;52.086;21.066;2022-07-18T01:21:10;13.30;99.90
23475;DHT22;11910;52.086;21.066;2022-07-18T01:23:36;13.50;99.90
23475;DHT22;11910;52.086;21.066;2022-07-18T01:26:01;13.50;99.90
23475;DHT22;11910;52.086;21.066;2022-07-18T01:28:27;13.60;99.90
23475;DHT22;11910;52.086;21.066;2022-07-18T01:30:53;13.60;99.90
23475;DHT22;11910;52.086;21.066;2022-07-18T01:33:18;13.60;99.90
23475;DHT22;11910;52.086;21.066;2022-07-18T01:35:44;13.50;99.90
23475;DHT22;11910;52.086;21.066;2022-07-18T01:38:09;13.40;99.90
23475;DHT22;11910;52.086;21.066;2022-07-18T01:40:35;13.40;99.90
23475;DHT22;11910;52.086;21.066;2022-07-18T01:43:01;13.30;99.90
23475;DHT22;11910;52.086;21.066;2022-07-18T01:45:27;13.30;99.90
23475;DHT22;11910;52.086;21.066;2022-07-18T01:47:52;13.30;99.90
23475;DHT22;11910;52.086;21.066;2022-07-18T01:50:18;13.40;99.90
23475;DHT22;11910;52.086;21.066;2022-07-18T01:52:44;13.50;99.90
23475;DHT22;11910;52.086;21.066;2022-07-18T01:55:10;13.50;99.90
23475;DHT22;11910;52.086;21.066;2022-07-18T01:57:36;13.40;99.90
23475;DHT22;11910;52.086;21.066;2022-07-18T02:00:04;13.40;99.90
23475;DHT22;11910;52.086;21.066;2022-07-18T02:02:30;13.30;99.80
23475;DHT22;11910;52.086;21.066;2022-07-18T02:04:56;13.20;99.90
23475;DHT22;11910;52.086;21.066;2022-07-18T02:07:26;13.10;99.90
23475;DHT22;11910;52.086;21.066;2022-07-18T02:09:52;13.10;99.90
23475;DHT22;11910;52.086;21.066;2022-07-18T02:12:18;13.00;99.90
23475;DHT22;11910;52.086;21.066;2022-07-18T02:14:44;13.00;99.90
23475;DHT22;11910;52.086;21.066;2022-07-18T02:17:10;12.90;99.90
23475;DHT22;11910;52.086;21.066;2022-07-18T02:19:35;13.00;99.90
23475;DHT22;11910;52.086;21.066;2022-07-18T02:22:01;13.10;99.90
23475;DHT22;11910;52.086;21.066;2022-07-18T02:24:27;13.20;99.90
23475;DHT22;11910;52.086;21.066;2022-07-18T02:26:52;13.40;99.90
23475;DHT22;11910;52.086;21.066;2022-07-18T02:29:18;13.30;99.90
23475;DHT22;11910;52.086;21.066;2022-07-18T02:31:43;13.30;99.90
23475;DHT22;11910;52.086;21.066;2022-07-18T02:34:09;13.30;99.90
23475;DHT22;11910;52.086;21.066;2022-07-18T02:36:40;13.20;99.90
23475;DHT22;11910;52.086;21.066;2022-07-18T02:39:06;13.10;99.90
23475;DHT22;11910;52.086;21.066;2022-07-18T02:41:32;13.00;99.90
23475;DHT22;11910;52.086;21.066;2022-07-18T02:43:58;12.90;99.90
23475;DHT22;11910;52.086;21.066;2022-07-18T02:46:24;12.90;99.90
23475;DHT22;11910;52.086;21.066;2022-07-18T02:48:50;13.00;99.90
23475;DHT22;11910;52.086;21.066;2022-07-18T02:51:15;13.10;99.90
23475;DHT22;11910;52.086;21.066;2022-07-18T02:53:41;13.10;99.90
23475;DHT22;11910;52.086;21.066;2022-07-18T02:56:07;13.00;99.90
23475;DHT22;11910;52.086;21.066;2022-07-18T02:58:32;13.00;99.90
23475;DHT22;11910;52.086;21.066;2022-07-18T03:00:58;12.90;99.90
23475;DHT22;11910;52.086;21.066;2022-07-18T03:03:24;12.90;99.90
23475;DHT22;11910;52.086;21.066;2022-07-18T03:05:50;12.90;99.90
23475;DHT22;11910;52.086;21.066;2022-07-18T03:08:15;12.90;99.90
23475;DHT22;11910;52.086;21.066;2022-07-18T03:10:41;12.90;99.90
23475;DHT22;11910;52.086;21.066;2022-07-18T03:13:07;13.10;99.90
23475;DHT22;11910;52.086;21.066;2022-07-18T03:15:32;13.10;99.90
23475;DHT22;11910;52.086;21.066;2022-07-18T03:17:58;13.10;99.90
23475;DHT22;11910;52.086;21.066;2022-07-18T03:20:24;13.00;99.90
23475;DHT22;11910;52.086;21.066;2022-07-18T03:22:50;13.10;99.90
23475;DHT22;11910;52.086;21.066;2022-07-18T03:25:15;13.10;99.90
23475;DHT22;11910;52.086;21.066;2022-07-18T03:27:41;13.20;99.90
23475;DHT22;11910;52.086;21.066;2022-07-18T03:30:07;13.30;99.90
23475;DHT22;11910;52.086;21.066;2022-07-18T03:32:33;13.20;99.90
23475;DHT22;11910;52.086;21.066;2022-07-18T03:34:59;13.30;99.90
23475;DHT22;11910;52.086;21.066;2022-07-18T03:37:24;13.50;99.90
23475;DHT22;11910;52.086;21.066;2022-07-18T03:39:50;13.50;99.90
23475;DHT22;11910;52.086;21.066;2022-07-18T03:42:16;13.60;99.90
23475;DHT22;11910;52.086;21.066;2022-07-18T03:44:41;13.70;99.90
23475;DHT22;11910;52.086;21.066;2022-07-18T03:47:07;13.90;99.90
23475;DHT22;11910;52.086;21.066;2022-07-18T03:49:32;14.10;99.90
23475;DHT22;11910;52.086;21.066;2022-07-18T03:51:58;14.30;99.90
23475;DHT22;11910;52.086;21.066;2022-07-18T03:54:24;14.40;99.90
23475;DHT22;11910;52.086;21.066;2022-07-18T03:56:50;14.60;99.90
23475;DHT22;11910;52.086;21.066;2022-07-18T03:59:16;14.80;99.90
23475;DHT22;11910;52.086;21.066;2022-07-18T04:01:41;14.90;99.90
23475;DHT22;11910;52.086;21.066;2022-07-18T04:04:07;15.00;99.90
23475;DHT22;11910;52.086;21.066;2022-07-18T04:06:33;15.00;99.90
23475;DHT22;11910;52.086;21.066;2022-07-18T04:08:58;15.10;99.90
23475;DHT22;11910;52.086;21.066;2022-07-18T04:11:24;15.20;99.90
23475;DHT22;11910;52.086;21.066;2022-07-18T04:13:51;15.20;99.90
23475;DHT22;11910;52.086;21.066;2022-07-18T04:16:17;15.30;99.90
23475;DHT22;11910;52.086;21.066;2022-07-18T04:18:43;15.40;99.90
23475;DHT22;11910;52.086;21.066;2022-07-18T04:21:09;15.40;99.90
23475;DHT22;11910;52.086;21.066;2022-07-18T04:23:34;15.50;99.90
23475;DHT22;11910;52.086;21.066;2022-07-18T04:26:00;15.60;99.90
23475;DHT22;11910;52.086;21.066;2022-07-18T04:28:26;15.60;99.90
23475;DHT22;11910;52.086;21.066;2022-07-18T04:30:52;15.70;99.90
23475;DHT22;11910;52.086;21.066;2022-07-18T04:33:18;15.70;99.90
23475;DHT22;11910;52.086;21.066;2022-07-18T04:35:44;15.80;99.90
23475;DHT22;11910;52.086;21.066;2022-07-18T04:38:10;15.80;99.90
23475;DHT22;11910;52.086;21.066;2022-07-18T04:40:36;15.80;99.90
23475;DHT22;11910;52.086;21.066;2022-07-18T04:43:03;15.80;99.90
23475;DHT22;11910;52.086;21.066;2022-07-18T04:45:29;15.80;99.90
23475;DHT22;11910;52.086;21.066;2022-07-18T04:47:55;15.90;99.90
23475;DHT22;11910;52.086;21.066;2022-07-18T04:50:21;15.90;99.90
23475;DHT22;11910;52.086;21.066;2022-07-18T04:52:48;16.00;99.50
23475;DHT22;11910;52.086;21.066;2022-07-18T04:55:16;16.00;99.90
23475;DHT22;11910;52.086;21.066;2022-07-18T04:57:43;16.00;99.80
23475;DHT22;11910;52.086;21.066;2022-07-18T05:00:12;16.10;99.60
23475;DHT22;11910;52.086;21.066;2022-07-18T05:02:45;16.10;99.50
23475;DHT22;11910;52.086;21.066;2022-07-18T05:05:13;16.10;99.60
23475;DHT22;11910;52.086;21.066;2022-07-18T05:07:40;16.20;99.90
23475;DHT22;11910;52.086;21.066;2022-07-18T05:10:07;16.20;99.70
23475;DHT22;11910;52.086;21.066;2022-07-18T05:12:38;16.30;99.50
23475;DHT22;11910;52.086;21.066;2022-07-18T05:15:08;16.40;99.60
23475;DHT22;11910;52.086;21.066;2022-07-18T05:17:36;16.50;99.20
23475;DHT22;11910;52.086;21.066;2022-07-18T05:20:05;16.50;99.30
23475;DHT22;11910;52.086;21.066;2022-07-18T05:22:32;16.60;98.50
23475;DHT22;11910;52.086;21.066;2022-07-18T05:24:58;16.70;98.60
23475;DHT22;11910;52.086;21.066;2022-07-18T05:27:24;16.80;98.60
23475;DHT22;11910;52.086;21.066;2022-07-18T05:29:49;16.90;98.60
23475;DHT22;11910;52.086;21.066;2022-07-18T05:32:15;17.00;98.40
23475;DHT22;11910;52.086;21.066;2022-07-18T05:34:41;17.00;98.20
23475;DHT22;11910;52.086;21.066;2022-07-18T05:37:10;17.10;98.40
23475;DHT22;11910;52.086;21.066;2022-07-18T05:39:35;17.10;98.10
23475;DHT22;11910;52.086;21.066;2022-07-18T05:42:03;17.20;98.20
23475;DHT22;11910;52.086;21.066;2022-07-18T05:44:29;17.20;98.00
23475;DHT22;11910;52.086;21.066;2022-07-18T05:46:55;17.30;97.60
23475;DHT22;11910;52.086;21.066;2022-07-18T05:49:20;17.40;97.30
23475;DHT22;11910;52.086;21.066;2022-07-18T05:51:46;17.40;97.40
23475;DHT22;11910;52.086;21.066;2022-07-18T05:54:12;17.40;97.40
23475;DHT22;11910;52.086;21.066;2022-07-18T05:56:37;17.50;97.40
23475;DHT22;11910;52.086;21.066;2022-07-18T05:59:03;17.50;97.50
23475;DHT22;11910;52.086;21.066;2022-07-18T06:01:30;17.60;97.60
23475;DHT22;11910;52.086;21.066;2022-07-18T06:03:56;17.70;96.90
23475;DHT22;11910;52.086;21.066;2022-07-18T06:06:21;17.70;96.80
23475;DHT22;11910;52.086;21.066;2022-07-18T06:08:49;17.80;96.40
23475;DHT22;11910;52.086;21.066;2022-07-18T06:11:14;17.90;96.70
23475;DHT22;11910;52.086;21.066;2022-07-18T06:13:40;17.90;96.90
23475;DHT22;11910;52.086;21.066;2022-07-18T06:16:08;17.90;96.70
23475;DHT22;11910;52.086;21.066;2022-07-18T06:18:33;18.00;96.70
23475;DHT22;11910;52.086;21.066;2022-07-18T06:21:02;18.10;95.50
23475;DHT22;11910;52.086;21.066;2022-07-18T06:23:28;18.10;95.70
23475;DHT22;11910;52.086;21.066;2022-07-18T06:25:54;18.20;95.80
23475;DHT22;11910;52.086;21.066;2022-07-18T06:28:20;18.30;95.00
23475;DHT22;11910;52.086;21.066;2022-07-18T06:30:46;18.40;95.30
23475;DHT22;11910;52.086;21.066;2022-07-18T06:33:12;18.40;95.10
23475;DHT22;11910;52.086;21.066;2022-07-18T06:35:39;18.50;95.40
23475;DHT22;11910;52.086;21.066;2022-07-18T06:38:05;18.60;94.90
23475;DHT22;11910;52.086;21.066;2022-07-18T06:40:31;18.70;94.50
23475;DHT22;11910;52.086;21.066;2022-07-18T06:42:57;18.80;94.60
23475;DHT22;11910;52.086;21.066;2022-07-18T06:45:23;18.80;94.70
23475;DHT22;11910;52.086;21.066;2022-07-18T06:47:48;18.90;95.70
23475;DHT22;11910;52.086;21.066;2022-07-18T06:50:15;19.00;94.90
23475;DHT22;11910;52.086;21.066;2022-07-18T06:52:43;19.10;94.80
23475;DHT22;11910;52.086;21.066;2022-07-18T06:55:11;19.10;94.30
23475;DHT22;11910;52.086;21.066;2022-07-18T06:57:37;19.20;94.60
23475;DHT22;11910;52.086;21.066;2022-07-18T07:00:05;19.30;93.40
23475;DHT22;11910;52.086;21.066;2022-07-18T07:02:31;19.40;93.80
23475;DHT22;11910;52.086;21.066;2022-07-18T07:04:57;19.40;93.00
23475;DHT22;11910;52.086;21.066;2022-07-18T07:07:22;19.50;94.00
23475;DHT22;11910;52.086;21.066;2022-07-18T07:09:48;19.60;93.60
23475;DHT22;11910;52.086;21.066;2022-07-18T07:12:14;19.60;93.20
23475;DHT22;11910;52.086;21.066;2022-07-18T07:14:39;19.60;93.50
23475;DHT22;11910;52.086;21.066;2022-07-18T07:17:05;19.70;92.60
23475;DHT22;11910;52.086;21.066;2022-07-18T07:19:31;19.70;92.90
23475;DHT22;11910;52.086;21.066;2022-07-18T07:21:57;19.70;92.10
23475;DHT22;11910;52.086;21.066;2022-07-18T07:24:23;19.70;92.80
23475;DHT22;11910;52.086;21.066;2022-07-18T07:26:49;19.70;92.40
23475;DHT22;11910;52.086;21.066;2022-07-18T07:29:15;19.80;92.80
23475;DHT22;11910;52.086;21.066;2022-07-18T07:31:41;19.80;92.10
23475;DHT22;11910;52.086;21.066;2022-07-18T07:34:08;19.90;92.50
23475;DHT22;11910;52.086;21.066;2022-07-18T07:36:35;20.00;92.10
23475;DHT22;11910;52.086;21.066;2022-07-18T07:39:01;20.10;92.70
23475;DHT22;11910;52.086;21.066;2022-07-18T07:41:27;20.10;92.60
23475;DHT22;11910;52.086;21.066;2022-07-18T07:43:53;20.20;91.80
23475;DHT22;11910;52.086;21.066;2022-07-18T07:46:19;20.20;92.00
23475;DHT22;11910;52.086;21.066;2022-07-18T07:48:44;20.30;92.60
23475;DHT22;11910;52.086;21.066;2022-07-18T07:51:13;20.40;91.50
23475;DHT22;11910;52.086;21.066;2022-07-18T07:53:38;20.50;91.70
23475;DHT22;11910;52.086;21.066;2022-07-18T07:56:04;20.70;91.60
23475;DHT22;11910;52.086;21.066;2022-07-18T07:58:30;20.80;91.40
23475;DHT22;11910;52.086;21.066;2022-07-18T08:00:56;21.00;90.00
23475;DHT22;11910;52.086;21.066;2022-07-18T08:03:21;21.10;90.20
23475;DHT22;11910;52.086;21.066;2022-07-18T08:05:50;21.30;89.90
23475;DHT22;11910;52.086;21.066;2022-07-18T08:08:17;21.30;87.80
23475;DHT22;11910;52.086;21.066;2022-07-18T08:10:44;21.40;90.00
23475;DHT22;11910;52.086;21.066;2022-07-18T08:13:11;21.40;88.20
23475;DHT22;11910;52.086;21.066;2022-07-18T08:15:37;21.50;88.20
23475;DHT22;11910;52.086;21.066;2022-07-18T08:18:03;21.60;87.30
23475;DHT22;11910;52.086;21.066;2022-07-18T08:20:29;21.70;87.00
23475;DHT22;11910;52.086;21.066;2022-07-18T08:23:02;21.80;86.00
23475;DHT22;11910;52.086;21.066;2022-07-18T08:25:30;21.80;85.50
23475;DHT22;11910;52.086;21.066;2022-07-18T08:27:57;22.00;85.50
23475;DHT22;11910;52.086;21.066;2022-07-18T08:30:23;22.00;85.80
23475;DHT22;11910;52.086;21.066;2022-07-18T08:32:48;22.10;84.70
23475;DHT22;11910;52.086;21.066;2022-07-18T08:35:15;22.00;86.90
23475;DHT22;11910;52.086;21.066;2022-07-18T08:37:42;22.00;86.30
23475;DHT22;11910;52.086;21.066;2022-07-18T08:40:08;22.20;84.00
23475;DHT22;11910;52.086;21.066;2022-07-18T08:42:34;22.20;84.30
23475;DHT22;11910;52.086;21.066;2022-07-18T08:45:01;22.40;84.10
23475;DHT22;11910;52.086;21.066;2022-07-18T08:47:28;22.70;82.50
23475;DHT22;11910;52.086;21.066;2022-07-18T08:49:55;22.80;81.80
23475;DHT22;11910;52.086;21.066;2022-07-18T08:52:21;22.90;83.40
23475;DHT22;11910;52.086;21.066;2022-07-18T08:54:47;22.90;82.00
23475;DHT22;11910;52.086;21.066;2022-07-18T08:57:16;22.70;81.50
23475;DHT22;11910;52.086;21.066;2022-07-18T08:59:42;22.70;82.00
23475;DHT22;11910;52.086;21.066;2022-07-18T09:02:08;22.50;82.70
23475;DHT22;11910;52.086;21.066;2022-07-18T09:04:38;22.40;81.80
23475;DHT22;11910;52.086;21.066;2022-07-18T09:07:05;22.30;82.00
23475;DHT22;11910;52.086;21.066;2022-07-18T09:09:34;22.40;83.90
23475;DHT22;11910;52.086;21.066;2022-07-18T09:12:02;23.00;80.70
23475;DHT22;11910;52.086;21.066;2022-07-18T09:14:37;23.60;79.50
23475;DHT22;11910;52.086;21.066;2022-07-18T09:20:09;25.30;74.20
23475;DHT22;11910;52.086;21.066;2022-07-18T09:22:33;24.60;73.90
23475;DHT22;11910;52.086;21.066;2022-07-18T09:25:10;24.80;73.90
23475;DHT22;11910;52.086;21.066;2022-07-18T09:27:41;24.60;72.00
23475;DHT22;11910;52.086;21.066;2022-07-18T09:30:10;25.00;71.30
23475;DHT22;11910;52.086;21.066;2022-07-18T09:32:37;25.70;70.30
23475;DHT22;11910;52.086;21.066;2022-07-18T09:35:14;27.40;67.80
23475;DHT22;11910;52.086;21.066;2022-07-18T09:37:40;29.00;62.90
23475;DHT22;11910;52.086;21.066;2022-07-18T09:40:24;30.10;60.80
23475;DHT22;11910;52.086;21.066;2022-07-18T09:42:55;30.10;59.40
23475;DHT22;11910;52.086;21.066;2022-07-18T09:45:48;30.60;55.70
23475;DHT22;11910;52.086;21.066;2022-07-18T09:48:17;31.10;54.10
23475;DHT22;11910;52.086;21.066;2022-07-18T09:53:26;31.20;54.70
23475;DHT22;11910;52.086;21.066;2022-07-18T09:55:54;30.90;53.90
23475;DHT22;11910;52.086;21.066;2022-07-18T09:58:25;30.30;54.90
23475;DHT22;11910;52.086;21.066;2022-07-18T10:00:53;29.70;54.50
23475;DHT22;11910;52.086;21.066;2022-07-18T10:03:20;29.40;55.80
23475;DHT22;11910;52.086;21.066;2022-07-18T10:05:48;29.20;56.10
23475;DHT22;11910;52.086;21.066;2022-07-18T10:08:19;29.20;56.20
23475;DHT22;11910;52.086;21.066;2022-07-18T10:10:47;29.00;57.20
23475;DHT22;11910;52.086;21.066;2022-07-18T10:13:14;29.10;55.90
23475;DHT22;11910;52.086;21.066;2022-07-18T10:15:42;29.00;55.80
23475;DHT22;11910;52.086;21.066;2022-07-18T10:18:11;28.90;57.30
23475;DHT22;11910;52.086;21.066;2022-07-18T10:20:42;28.80;56.40
23475;DHT22;11910;52.086;21.066;2022-07-18T10:31:32;27.90;56.70
23475;DHT22;11910;52.086;21.066;2022-07-18T10:37:06;27.50;57.90
23475;DHT22;11910;52.086;21.066;2022-07-18T10:39:35;27.40;58.30
23475;DHT22;11910;52.086;21.066;2022-07-18T10:57:34;25.80;63.40
23475;DHT22;11910;52.086;21.066;2022-07-18T11:00:02;25.70;63.10
23475;DHT22;11910;52.086;21.066;2022-07-18T11:02:37;25.40;62.00
23475;DHT22;11910;52.086;21.066;2022-07-18T11:05:31;25.40;62.30
23475;DHT22;11910;52.086;21.066;2022-07-18T11:21:33;24.70;65.30
23475;DHT22;11910;52.086;21.066;2022-07-18T11:24:00;24.60;66.30
23475;DHT22;11910;52.086;21.066;2022-07-18T11:26:27;24.50;66.20
23475;DHT22;11910;52.086;21.066;2022-07-18T11:31:30;24.50;68.00
23475;DHT22;11910;52.086;21.066;2022-07-18T11:33:59;24.40;67.20
23475;DHT22;11910;52.086;21.066;2022-07-18T11:36:30;24.50;67.60
23475;DHT22;11910;52.086;21.066;2022-07-18T11:38:58;24.50;66.20
23475;DHT22;11910;52.086;21.066;2022-07-18T11:41:24;24.70;67.40
23475;DHT22;11910;52.086;21.066;2022-07-18T11:43:52;24.80;67.00
23475;DHT22;11910;52.086;21.066;2022-07-18T11:46:20;24.80;66.90
23475;DHT22;11910;52.086;21.066;2022-07-18T11:48:48;24.70;66.50
23475;DHT22;11910;52.086;21.066;2022-07-18T11:51:16;24.70;66.00
23475;DHT22;11910;52.086;21.066;2022-07-18T11:53:43;24.70;64.80
23475;DHT22;11910;52.086;21.066;2022-07-18T11:56:13;24.70;66.30
23475;DHT22;11910;52.086;21.066;2022-07-18T11:58:41;24.70;68.50
23475;DHT22;11910;52.086;21.066;2022-07-18T12:01:07;24.60;67.00
23475;DHT22;11910;52.086;21.066;2022-07-18T12:03:40;24.50;67.40
23475;DHT22;11910;52.086;21.066;2022-07-18T12:06:15;24.60;66.90
23475;DHT22;11910;52.086;21.066;2022-07-18T12:08:43;24.70;68.30
23475;DHT22;11910;52.086;21.066;2022-07-18T12:16:40;25.40;65.50
23475;DHT22;11910;52.086;21.066;2022-07-18T12:21:55;25.60;66.30
23475;DHT22;11910;52.086;21.066;2022-07-18T12:27:15;26.00;65.60
23475;DHT22;11910;52.086;21.066;2022-07-18T12:32:39;26.20;62.90
23475;DHT22;11910;52.086;21.066;2022-07-18T12:35:35;26.20;61.90
23475;DHT22;11910;52.086;21.066;2022-07-18T12:40:51;26.00;63.80
23475;DHT22;11910;52.086;21.066;2022-07-18T12:43:35;26.10;63.90
23475;DHT22;11910;52.086;21.066;2022-07-18T12:46:06;26.20;62.90
23475;DHT22;11910;52.086;21.066;2022-07-18T12:48:35;26.20;62.80
23475;DHT22;11910;52.086;21.066;2022-07-18T12:51:07;26.20;62.30
23475;DHT22;11910;52.086;21.066;2022-07-18T12:53:35;26.30;61.50
23475;DHT22;11910;52.086;21.066;2022-07-18T12:56:01;26.20;64.30
23475;DHT22;11910;52.086;21.066;2022-07-18T12:58:27;26.30;61.50
23475;DHT22;11910;52.086;21.066;2022-07-18T13:00:53;26.20;62.50
23475;DHT22;11910;52.086;21.066;2022-07-18T13:03:21;26.20;62.60
23475;DHT22;11910;52.086;21.066;2022-07-18T13:05:47;26.40;62.20
23475;DHT22;11910;52.086;21.066;2022-07-18T13:08:13;26.40;62.50
23475;DHT22;11910;52.086;21.066;2022-07-18T13:10:40;26.50;61.90
23475;DHT22;11910;52.086;21.066;2022-07-18T13:13:07;26.50;62.10
23475;DHT22;11910;52.086;21.066;2022-07-18T13:15:34;26.60;60.50
23475;DHT22;11910;52.086;21.066;2022-07-18T13:18:00;26.70;62.30
23475;DHT22;11910;52.086;21.066;2022-07-18T13:20:26;26.70;59.60
23475;DHT22;11910;52.086;21.066;2022-07-18T13:22:52;26.80;61.60
23475;DHT22;11910;52.086;21.066;2022-07-18T13:25:18;26.80;59.20
23475;DHT22;11910;52.086;21.066;2022-07-18T13:27:48;26.70;60.90
23475;DHT22;11910;52.086;21.066;2022-07-18T13:30:14;26.80;62.70
23475;DHT22;11910;52.086;21.066;2022-07-18T13:32:40;26.80;59.50
23475;DHT22;11910;52.086;21.066;2022-07-18T13:35:10;26.70;58.90
23475;DHT22;11910;52.086;21.066;2022-07-18T13:37:36;26.60;59.00
23475;DHT22;11910;52.086;21.066;2022-07-18T13:40:01;26.40;59.40
23475;DHT22;11910;52.086;21.066;2022-07-18T13:42:27;26.20;59.20
23475;DHT22;11910;52.086;21.066;2022-07-18T13:44:53;26.10;59.90
23475;DHT22;11910;52.086;21.066;2022-07-18T13:47:19;25.90;60.90
23475;DHT22;11910;52.086;21.066;2022-07-18T13:49:44;25.80;61.90
23475;DHT22;11910;52.086;21.066;2022-07-18T13:52:12;25.80;62.00
23475;DHT22;11910;52.086;21.066;2022-07-18T13:54:38;26.00;60.70
23475;DHT22;11910;52.086;21.066;2022-07-18T13:57:04;26.10;61.20
23475;DHT22;11910;52.086;21.066;2022-07-18T13:59:29;26.20;59.90
23475;DHT22;11910;52.086;21.066;2022-07-18T14:01:55;26.30;58.70
23475;DHT22;11910;52.086;21.066;2022-07-18T14:04:21;26.30;59.20
23475;DHT22;11910;52.086;21.066;2022-07-18T14:06:47;26.40;59.90
23475;DHT22;11910;52.086;21.066;2022-07-18T14:09:13;26.40;59.30
23475;DHT22;11910;52.086;21.066;2022-07-18T14:11:39;26.50;59.30
23475;DHT22;11910;52.086;21.066;2022-07-18T14:14:05;26.60;59.20
23475;DHT22;11910;52.086;21.066;2022-07-18T14:16:31;26.80;59.70
23475;DHT22;11910;52.086;21.066;2022-07-18T14:18:57;27.10;58.00
23475;DHT22;11910;52.086;21.066;2022-07-18T14:21:23;27.30;58.30
23475;DHT22;11910;52.086;21.066;2022-07-18T14:23:49;27.50;57.30
23475;DHT22;11910;52.086;21.066;2022-07-18T14:26:15;27.70;57.20
23475;DHT22;11910;52.086;21.066;2022-07-18T14:28:42;27.90;56.40
23475;DHT22;11910;52.086;21.066;2022-07-18T14:31:07;28.10;55.70
23475;DHT22;11910;52.086;21.066;2022-07-18T14:33:33;28.20;54.40
23475;DHT22;11910;52.086;21.066;2022-07-18T14:35:59;28.10;54.90
23475;DHT22;11910;52.086;21.066;2022-07-18T14:38:25;28.20;54.20
23475;DHT22;11910;52.086;21.066;2022-07-18T14:40:51;28.40;55.60
23475;DHT22;11910;52.086;21.066;2022-07-18T14:43:17;28.50;55.10
23475;DHT22;11910;52.086;21.066;2022-07-18T14:45:43;28.80;53.00
23475;DHT22;11910;52.086;21.066;2022-07-18T14:48:09;28.90;53.10
23475;DHT22;11910;52.086;21.066;2022-07-18T14:50:34;28.90;54.60
23475;DHT22;11910;52.086;21.066;2022-07-18T14:53:00;28.70;52.80
23475;DHT22;11910;52.086;21.066;2022-07-18T14:55:26;28.50;52.80
23475;DHT22;11910;52.086;21.066;2022-07-18T14:57:52;28.30;54.00
23475;DHT22;11910;52.086;21.066;2022-07-18T15:00:18;28.10;53.20
23475;DHT22;11910;52.086;21.066;2022-07-18T15:02:43;28.10;53.60
23475;DHT22;11910;52.086;21.066;2022-07-18T15:05:10;28.00;54.40
23475;DHT22;11910;52.086;21.066;2022-07-18T15:07:36;27.90;53.80
23475;DHT22;11910;52.086;21.066;2022-07-18T15:10:03;27.80;54.10
23475;DHT22;11910;52.086;21.066;2022-07-18T15:12:29;27.90;53.90
23475;DHT22;11910;52.086;21.066;2022-07-18T15:14:55;28.00;54.00
23475;DHT22;11910;52.086;21.066;2022-07-18T15:17:22;28.10;54.00
23475;DHT22;11910;52.086;21.066;2022-07-18T15:19:48;28.20;54.20
23475;DHT22;11910;52.086;21.066;2022-07-18T15:22:14;28.30;55.60
23475;DHT22;11910;52.086;21.066;2022-07-18T15:24:40;28.40;55.10
23475;DHT22;11910;52.086;21.066;2022-07-18T15:27:05;28.20;53.90
23475;DHT22;11910;52.086;21.066;2022-07-18T15:29:31;27.90;54.00
23475;DHT22;11910;52.086;21.066;2022-07-18T15:31:57;27.90;53.90
23475;DHT22;11910;52.086;21.066;2022-07-18T15:34:23;27.90;52.30
23475;DHT22;11910;52.086;21.066;2022-07-18T15:36:49;28.00;53.00
23475;DHT22;11910;52.086;21.066;2022-07-18T15:39:15;28.10;52.40
23475;DHT22;11910;52.086;21.066;2022-07-18T15:41:41;28.10;53.20
23475;DHT22;11910;52.086;21.066;2022-07-18T15:44:10;28.10;53.20
23475;DHT22;11910;52.086;21.066;2022-07-18T15:46:36;28.10;52.50
23475;DHT22;11910;52.086;21.066;2022-07-18T15:49:02;28.10;52.80
23475;DHT22;11910;52.086;21.066;2022-07-18T15:51:28;28.00;54.10
23475;DHT22;11910;52.086;21.066;2022-07-18T15:53:54;28.00;54.30
23475;DHT22;11910;52.086;21.066;2022-07-18T15:56:19;27.90;53.70
23475;DHT22;11910;52.086;21.066;2022-07-18T15:58:45;27.80;53.90
23475;DHT22;11910;52.086;21.066;2022-07-18T16:01:11;27.70;53.60
23475;DHT22;11910;52.086;21.066;2022-07-18T16:03:37;27.50;54.60
23475;DHT22;11910;52.086;21.066;2022-07-18T16:06:03;27.30;54.70
23475;DHT22;11910;52.086;21.066;2022-07-18T16:08:28;27.20;54.90
23475;DHT22;11910;52.086;21.066;2022-07-18T16:10:54;27.20;54.30
23475;DHT22;11910;52.086;21.066;2022-07-18T16:13:20;27.10;54.40
23475;DHT22;11910;52.086;21.066;2022-07-18T16:15:46;27.10;55.40
23475;DHT22;11910;52.086;21.066;2022-07-18T16:18:12;27.10;54.80
23475;DHT22;11910;52.086;21.066;2022-07-18T16:20:40;27.20;55.00
23475;DHT22;11910;52.086;21.066;2022-07-18T16:23:06;27.30;54.90
23475;DHT22;11910;52.086;21.066;2022-07-18T16:25:31;27.40;54.50